sensor_id;sensor_type;location;lat;lon;timestamp;temperature;humidity
83660;SHT30;73632;50.808;3.422;2024-01-11T00:00:32;-2.60;67.57
83660;SHT30;73632;50.808;3.422;2024-01-11T00:02:57;-2.53;67.49
83660;SHT30;73632;50.808;3.422;2024-01-11T00:05:23;-2.63;67.78
83660;SHT30;73632;50.808;3.422;2024-01-11T00:07:48;-2.67;68.10
83660;SHT30;73632;50.808;3.422;2024-01-11T00:10:15;-2.63;67.77
83660;SHT30;73632;50.808;3.422;2024-01-11T00:12:40;-2.61;67.54
83660;SHT30;73632;50.808;3.422;2024-01-11T00:15:06;-2.61;67.72
83660;SHT30;73632;50.808;3.422;2024-01-11T00:17:31;-2.64;67.89
83660;SHT30;73632;50.808;3.422;2024-01-11T00:19:57;-2.70;68.23
83660;SHT30;73632;50.808;3.422;2024-01-11T00:22:22;-2.63;68.18
83660;SHT30;73632;50.808;3.422;2024-01-11T00:24:47;-2.71;68.36
83660;SHT30;73632;50.808;3.422;2024-01-11T00:27:13;-2.68;68.41
83660;SHT30;73632;50.808;3.422;2024-01-11T00:29:38;-2.85;69.08
83660;SHT30;73632;50.808;3.422;2024-01-11T00:32:04;-2.89;69.02
83660;SHT30;73632;50.808;3.422;2024-01-11T00:34:29;-2.87;69.12
83660;SHT30;73632;50.808;3.422;2024-01-11T00:36:55;-2.87;69.02
83660;SHT30;73632;50.808;3.422;2024-01-11T00:39:21;-2.78;68.33
83660;SHT30;73632;50.808;3.422;2024-01-11T00:41:46;-2.81;68.46
83660;SHT30;73632;50.808;3.422;2024-01-11T00:44:12;-2.78;68.57
83660;SHT30;73632;50.808;3.422;2024-01-11T00:46:37;-2.78;68.56
83660;SHT30;73632;50.808;3.422;2024-01-11T00:49:03;-2.78;68.72
83660;SHT30;73632;50.808;3.422;2024-01-11T00:51:29;-2.81;68.59
83660;SHT30;73632;50.808;3.422;2024-01-11T00:53:54;-2.87;68.88
83660;SHT30;73632;50.808;3.422;2024-01-11T00:56:20;-2.88;68.83
83660;SHT30;73632;50.808;3.422;2024-01-11T00:58:45;-2.89;69.02
83660;SHT30;73632;50.808;3.422;2024-01-11T01:01:11;-2.88;68.74
83660;SHT30;73632;50.808;3.422;2024-01-11T01:03:37;-2.88;68.80
83660;SHT30;73632;50.808;3.422;2024-01-11T01:06:03;-2.92;68.90
83660;SHT30;73632;50.808;3.422;2024-01-11T01:08:28;-2.85;69.02
83660;SHT30;73632;50.808;3.422;2024-01-11T01:10:54;-2.85;69.00
83660;SHT30;73632;50.808;3.422;2024-01-11T01:13:20;-2.88;68.86
83660;SHT30;73632;50.808;3.422;2024-01-11T01:15:45;-2.88;69.25
83660;SHT30;73632;50.808;3.422;2024-01-11T01:18:11;-2.78;68.75
83660;SHT30;73632;50.808;3.422;2024-01-11T01:20:36;-2.91;69.02
83660;SHT30;73632;50.808;3.422;2024-01-11T01:23:02;-2.95;69.61
83660;SHT30;73632;50.808;3.422;2024-01-11T01:25:27;-3.02;69.86
83660;SHT30;73632;50.808;3.422;2024-01-11T01:27:53;-3.02;69.97
83660;SHT30;73632;50.808;3.422;2024-01-11T01:30:19;-3.08;70.12
83660;SHT30;73632;50.808;3.422;2024-01-11T01:32:44;-2.99;69.63
83660;SHT30;73632;50.808;3.422;2024-01-11T01:35:10;-2.99;69.87
83660;SHT30;73632;50.808;3.422;2024-01-11T01:37:35;-2.83;68.99
83660;SHT30;73632;50.808;3.422;2024-01-11T01:40:01;-2.84;68.97
83660;SHT30;73632;50.808;3.422;2024-01-11T01:42:26;-2.88;69.41
83660;SHT30;73632;50.808;3.422;2024-01-11T01:44:52;-3.04;69.59
83660;SHT30;73632;50.808;3.422;2024-01-11T01:47:17;-3.09;70.27
83660;SHT30;73632;50.808;3.422;2024-01-11T01:49:44;-3.07;69.91
83660;SHT30;73632;50.808;3.422;2024-01-11T01:52:10;-3.05;69.99
83660;SHT30;73632;50.808;3.422;2024-01-11T01:54:39;-3.13;70.30
83660;SHT30;73632;50.808;3.422;2024-01-11T01:57:05;-3.15;70.52
83660;SHT30;73632;50.808;3.422;2024-01-11T01:59:31;-2.98;69.93
83660;SHT30;73632;50.808;3.422;2024-01-11T02:01:57;-3.13;69.86
83660;SHT30;73632;50.808;3.422;2024-01-11T02:04:23;-3.02;69.69
83660;SHT30;73632;50.808;3.422;2024-01-11T02:06:50;-3.05;69.73
83660;SHT30;73632;50.808;3.422;2024-01-11T02:09:17;-2.92;69.32
83660;SHT30;73632;50.808;3.422;2024-01-11T02:11:44;-2.91;68.89
83660;SHT30;73632;50.808;3.422;2024-01-11T02:14:10;-2.94;68.85
83660;SHT30;73632;50.808;3.422;2024-01-11T02:16:36;-2.97;69.10
83660;SHT30;73632;50.808;3.422;2024-01-11T02:19:02;-2.98;69.40
83660;SHT30;73632;50.808;3.422;2024-01-11T02:21:28;-2.92;69.25
83660;SHT30;73632;50.808;3.422;2024-01-11T02:24:06;-2.94;69.16
83660;SHT30;73632;50.808;3.422;2024-01-11T02:26:32;-2.92;69.32
83660;SHT30;73632;50.808;3.422;2024-01-11T02:28:58;-2.97;69.51
83660;SHT30;73632;50.808;3.422;2024-01-11T02:31:24;-2.89;69.26
83660;SHT30;73632;50.808;3.422;2024-01-11T02:33:51;-2.95;69.28
83660;SHT30;73632;50.808;3.422;2024-01-11T02:36:17;-3.02;69.83
83660;SHT30;73632;50.808;3.422;2024-01-11T02:38:43;-2.92;69.56
83660;SHT30;73632;50.808;3.422;2024-01-11T02:41:10;-2.99;69.27
83660;SHT30;73632;50.808;3.422;2024-01-11T02:43:36;-2.89;68.81
83660;SHT30;73632;50.808;3.422;2024-01-11T02:46:02;-2.88;68.76
83660;SHT30;73632;50.808;3.422;2024-01-11T02:48:29;-2.83;68.31
83660;SHT30;73632;50.808;3.422;2024-01-11T02:50:55;-2.87;68.54
83660;SHT30;73632;50.808;3.422;2024-01-11T02:53:21;-2.78;68.42
83660;SHT30;73632;50.808;3.422;2024-01-11T02:55:46;-2.83;68.16
83660;SHT30;73632;50.808;3.422;2024-01-11T02:58:12;-2.89;68.55
83660;SHT30;73632;50.808;3.422;2024-01-11T03:00:37;-2.89;68.76
83660;SHT30;73632;50.808;3.422;2024-01-11T03:03:03;-3.02;69.17
83660;SHT30;73632;50.808;3.422;2024-01-11T03:05:28;-2.92;69.02
83660;SHT30;73632;50.808;3.422;2024-01-11T03:07:54;-2.89;68.83
83660;SHT30;73632;50.808;3.422;2024-01-11T03:10:19;-2.99;69.63
83660;SHT30;73632;50.808;3.422;2024-01-11T03:12:44;-2.89;68.82
83660;SHT30;73632;50.808;3.422;2024-01-11T03:15:10;-2.89;68.43
83660;SHT30;73632;50.808;3.422;2024-01-11T03:17:36;-2.91;68.43
83660;SHT30;73632;50.808;3.422;2024-01-11T03:20:02;-2.99;69.14
83660;SHT30;73632;50.808;3.422;2024-01-11T03:22:29;-3.04;69.08
83660;SHT30;73632;50.808;3.422;2024-01-11T03:24:55;-3.21;70.00
83660;SHT30;73632;50.808;3.422;2024-01-11T03:27:20;-2.98;69.16
83660;SHT30;73632;50.808;3.422;2024-01-11T03:29:46;-3.01;69.18
83660;SHT30;73632;50.808;3.422;2024-01-11T03:32:11;-2.98;69.10
83660;SHT30;73632;50.808;3.422;2024-01-11T03:34:39;-3.02;69.04
83660;SHT30;73632;50.808;3.422;2024-01-11T03:37:04;-3.15;69.59
83660;SHT30;73632;50.808;3.422;2024-01-11T03:39:30;-3.11;69.83
83660;SHT30;73632;50.808;3.422;2024-01-11T03:41:55;-3.16;70.03
83660;SHT30;73632;50.808;3.422;2024-01-11T03:44:22;-3.19;70.12
83660;SHT30;73632;50.808;3.422;2024-01-11T03:46:48;-3.25;70.18
83660;SHT30;73632;50.808;3.422;2024-01-11T03:49:13;-3.45;70.90
83660;SHT30;73632;50.808;3.422;2024-01-11T03:51:39;-3.28;70.78
83660;SHT30;73632;50.808;3.422;2024-01-11T03:54:05;-3.29;70.67
83660;SHT30;73632;50.808;3.422;2024-01-11T03:56:30;-3.22;70.43
83660;SHT30;73632;50.808;3.422;2024-01-11T03:58:56;-3.36;70.84
83660;SHT30;73632;50.808;3.422;2024-01-11T04:01:21;-3.21;70.63
83660;SHT30;73632;50.808;3.422;2024-01-11T04:03:47;-3.41;71.13
83660;SHT30;73632;50.808;3.422;2024-01-11T04:06:19;-3.31;70.72
83660;SHT30;73632;50.808;3.422;2024-01-11T04:08:46;-3.38;70.82
83660;SHT30;73632;50.808;3.422;2024-01-11T04:11:12;-3.38;70.83
83660;SHT30;73632;50.808;3.422;2024-01-11T04:13:37;-3.59;71.70
83660;SHT30;73632;50.808;3.422;2024-01-11T04:16:05;-3.62;71.85
83660;SHT30;73632;50.808;3.422;2024-01-11T04:18:32;-3.52;71.51
83660;SHT30;73632;50.808;3.422;2024-01-11T04:20:57;-3.58;71.92
83660;SHT30;73632;50.808;3.422;2024-01-11T04:23:22;-3.51;72.02
83660;SHT30;73632;50.808;3.422;2024-01-11T04:25:48;-3.45;71.86
83660;SHT30;73632;50.808;3.422;2024-01-11T04:28:13;-3.48;71.76
83660;SHT30;73632;50.808;3.422;2024-01-11T04:30:39;-3.52;71.95
83660;SHT30;73632;50.808;3.422;2024-01-11T04:33:04;-3.55;71.96
83660;SHT30;73632;50.808;3.422;2024-01-11T04:35:29;-3.58;72.02
83660;SHT30;73632;50.808;3.422;2024-01-11T04:37:55;-3.42;71.62
83660;SHT30;73632;50.808;3.422;2024-01-11T04:40:20;-3.43;71.71
83660;SHT30;73632;50.808;3.422;2024-01-11T04:42:46;-3.51;71.90
83660;SHT30;73632;50.808;3.422;2024-01-11T04:45:11;-3.39;71.62
83660;SHT30;73632;50.808;3.422;2024-01-11T04:47:36;-3.43;71.41
83660;SHT30;73632;50.808;3.422;2024-01-11T04:50:04;-3.58;71.78
83660;SHT30;73632;50.808;3.422;2024-01-11T04:52:29;-3.51;71.55
83660;SHT30;73632;50.808;3.422;2024-01-11T04:54:55;-3.60;72.26
83660;SHT30;73632;50.808;3.422;2024-01-11T04:57:20;-3.52;72.26
83660;SHT30;73632;50.808;3.422;2024-01-11T04:59:46;-3.52;72.13
83660;SHT30;73632;50.808;3.422;2024-01-11T05:02:11;-3.62;72.43
83660;SHT30;73632;50.808;3.422;2024-01-11T05:04:36;-3.58;72.48
83660;SHT30;73632;50.808;3.422;2024-01-11T05:07:02;-3.58;72.26
83660;SHT30;73632;50.808;3.422;2024-01-11T05:09:27;-3.49;72.49
83660;SHT30;73632;50.808;3.422;2024-01-11T05:11:53;-3.56;72.81
83660;SHT30;73632;50.808;3.422;2024-01-11T05:14:18;-3.56;73.07
83660;SHT30;73632;50.808;3.422;2024-01-11T05:16:43;-3.73;73.51
83660;SHT30;73632;50.808;3.422;2024-01-11T05:19:10;-3.90;74.10
83660;SHT30;73632;50.808;3.422;2024-01-11T05:21:35;-3.82;73.98
83660;SHT30;73632;50.808;3.422;2024-01-11T05:24:01;-3.67;73.22
83660;SHT30;73632;50.808;3.422;2024-01-11T05:26:26;-3.63;73.13
83660;SHT30;73632;50.808;3.422;2024-01-11T05:28:52;-3.56;72.89
83660;SHT30;73632;50.808;3.422;2024-01-11T05:31:17;-3.64;73.46
83660;SHT30;73632;50.808;3.422;2024-01-11T05:33:43;-3.70;73.98
83660;SHT30;73632;50.808;3.422;2024-01-11T05:36:09;-3.63;74.01
83660;SHT30;73632;50.808;3.422;2024-01-11T05:38:35;-3.72;74.53
83660;SHT30;73632;50.808;3.422;2024-01-11T05:41:01;-3.63;74.25
83660;SHT30;73632;50.808;3.422;2024-01-11T05:43:27;-3.55;74.02
83660;SHT30;73632;50.808;3.422;2024-01-11T05:45:52;-3.62;74.01
83660;SHT30;73632;50.808;3.422;2024-01-11T05:48:18;-3.56;74.07
83660;SHT30;73632;50.808;3.422;2024-01-11T05:50:44;-3.69;74.78
83660;SHT30;73632;50.808;3.422;2024-01-11T05:53:10;-3.77;75.35
83660;SHT30;73632;50.808;3.422;2024-01-11T05:55:36;-3.83;75.44
83660;SHT30;73632;50.808;3.422;2024-01-11T05:58:01;-3.86;75.58
83660;SHT30;73632;50.808;3.422;2024-01-11T06:00:27;-3.76;75.27
83660;SHT30;73632;50.808;3.422;2024-01-11T06:02:52;-3.73;75.41
83660;SHT30;73632;50.808;3.422;2024-01-11T06:05:18;-3.72;75.15
83660;SHT30;73632;50.808;3.422;2024-01-11T06:07:43;-3.74;75.37
83660;SHT30;73632;50.808;3.422;2024-01-11T06:10:12;-3.77;75.59
83660;SHT30;73632;50.808;3.422;2024-01-11T06:12:38;-3.77;75.69
83660;SHT30;73632;50.808;3.422;2024-01-11T06:15:03;-3.74;75.43
83660;SHT30;73632;50.808;3.422;2024-01-11T06:17:29;-3.73;75.65
83660;SHT30;73632;50.808;3.422;2024-01-11T06:19:54;-3.67;75.54
83660;SHT30;73632;50.808;3.422;2024-01-11T06:22:20;-3.64;75.24
83660;SHT30;73632;50.808;3.422;2024-01-11T06:24:46;-3.77;75.68
83660;SHT30;73632;50.808;3.422;2024-01-11T06:27:11;-3.72;75.63
83660;SHT30;73632;50.808;3.422;2024-01-11T06:29:37;-3.58;75.28
83660;SHT30;73632;50.808;3.422;2024-01-11T06:32:02;-3.62;75.24
83660;SHT30;73632;50.808;3.422;2024-01-11T06:34:28;-3.67;75.53
83660;SHT30;73632;50.808;3.422;2024-01-11T06:36:57;-3.69;75.85
83660;SHT30;73632;50.808;3.422;2024-01-11T06:39:22;-3.60;75.49
83660;SHT30;73632;50.808;3.422;2024-01-11T06:41:47;-3.62;75.30
83660;SHT30;73632;50.808;3.422;2024-01-11T06:44:13;-3.62;75.47
83660;SHT30;73632;50.808;3.422;2024-01-11T06:46:38;-3.73;76.18
83660;SHT30;73632;50.808;3.422;2024-01-11T06:49:10;-3.62;75.69
83660;SHT30;73632;50.808;3.422;2024-01-11T06:51:35;-3.55;75.21
83660;SHT30;73632;50.808;3.422;2024-01-11T06:54:01;-3.48;74.98
83660;SHT30;73632;50.808;3.422;2024-01-11T06:56:27;-3.39;74.72
83660;SHT30;73632;50.808;3.422;2024-01-11T06:58:53;-3.34;74.88
83660;SHT30;73632;50.808;3.422;2024-01-11T07:01:20;-3.58;75.76
83660;SHT30;73632;50.808;3.422;2024-01-11T07:03:45;-3.59;75.61
83660;SHT30;73632;50.808;3.422;2024-01-11T07:06:10;-3.60;75.60
83660;SHT30;73632;50.808;3.422;2024-01-11T07:08:37;-3.51;75.41
83660;SHT30;73632;50.808;3.422;2024-01-11T07:11:02;-3.64;76.00
83660;SHT30;73632;50.808;3.422;2024-01-11T07:13:29;-3.59;76.33
83660;SHT30;73632;50.808;3.422;2024-01-11T07:15:54;-3.48;76.34
83660;SHT30;73632;50.808;3.422;2024-01-11T07:18:21;-3.34;76.84
83660;SHT30;73632;50.808;3.422;2024-01-11T07:20:47;-3.43;76.35
83660;SHT30;73632;50.808;3.422;2024-01-11T07:23:13;-3.38;75.29
83660;SHT30;73632;50.808;3.422;2024-01-11T07:25:39;-3.42;75.47
83660;SHT30;73632;50.808;3.422;2024-01-11T07:28:04;-3.39;75.36
83660;SHT30;73632;50.808;3.422;2024-01-11T07:30:30;-3.42;75.42
83660;SHT30;73632;50.808;3.422;2024-01-11T07:32:55;-3.51;75.48
83660;SHT30;73632;50.808;3.422;2024-01-11T07:35:21;-3.60;75.83
83660;SHT30;73632;50.808;3.422;2024-01-11T07:37:46;-3.51;75.71
83660;SHT30;73632;50.808;3.422;2024-01-11T07:40:12;-3.64;76.00
83660;SHT30;73632;50.808;3.422;2024-01-11T07:42:39;-3.52;75.51
83660;SHT30;73632;50.808;3.422;2024-01-11T07:45:06;-3.52;75.93
83660;SHT30;73632;50.808;3.422;2024-01-11T07:47:32;-3.56;75.73
83660;SHT30;73632;50.808;3.422;2024-01-11T07:49:57;-3.58;76.02
83660;SHT30;73632;50.808;3.422;2024-01-11T07:52:23;-3.45;75.06
83660;SHT30;73632;50.808;3.422;2024-01-11T07:54:49;-3.31;74.79
83660;SHT30;73632;50.808;3.422;2024-01-11T07:57:14;-3.43;75.25
83660;SHT30;73632;50.808;3.422;2024-01-11T07:59:40;-3.38;75.35
83660;SHT30;73632;50.808;3.422;2024-01-11T08:02:06;-3.22;74.80
83660;SHT30;73632;50.808;3.422;2024-01-11T08:04:32;-2.98;74.19
83660;SHT30;73632;50.808;3.422;2024-01-11T08:06:57;-3.04;74.43
83660;SHT30;73632;50.808;3.422;2024-01-11T08:09:25;-3.02;73.89
83660;SHT30;73632;50.808;3.422;2024-01-11T08:11:51;-3.02;74.20
83660;SHT30;73632;50.808;3.422;2024-01-11T08:14:18;-2.83;73.57
83660;SHT30;73632;50.808;3.422;2024-01-11T08:16:43;-2.83;73.51
83660;SHT30;73632;50.808;3.422;2024-01-11T08:19:09;-2.81;73.74
83660;SHT30;73632;50.808;3.422;2024-01-11T08:21:35;-2.70;73.33
83660;SHT30;73632;50.808;3.422;2024-01-11T08:24:01;-2.64;72.91
83660;SHT30;73632;50.808;3.422;2024-01-11T08:26:28;-2.56;72.63
83660;SHT30;73632;50.808;3.422;2024-01-11T08:28:53;-2.64;72.85
83660;SHT30;73632;50.808;3.422;2024-01-11T08:31:19;-2.67;73.41
83660;SHT30;73632;50.808;3.422;2024-01-11T08:33:44;-2.52;73.02
83660;SHT30;73632;50.808;3.422;2024-01-11T08:36:10;-2.29;72.03
83660;SHT30;73632;50.808;3.422;2024-01-11T08:38:36;-2.07;71.39
83660;SHT30;73632;50.808;3.422;2024-01-11T08:41:02;-1.85;70.74
83660;SHT30;73632;50.808;3.422;2024-01-11T08:43:28;-1.72;69.80
83660;SHT30;73632;50.808;3.422;2024-01-11T08:45:54;-1.47;69.11
83660;SHT30;73632;50.808;3.422;2024-01-11T08:48:20;-1.04;68.26
83660;SHT30;73632;50.808;3.422;2024-01-11T08:50:46;-0.63;66.95
83660;SHT30;73632;50.808;3.422;2024-01-11T08:53:11;-0.30;65.45
83660;SHT30;73632;50.808;3.422;2024-01-11T08:55:37;0.05;64.84
83660;SHT30;73632;50.808;3.422;2024-01-11T08:58:02;0.40;63.82
83660;SHT30;73632;50.808;3.422;2024-01-11T09:00:29;0.81;62.61
83660;SHT30;73632;50.808;3.422;2024-01-11T09:02:55;1.14;61.19
83660;SHT30;73632;50.808;3.422;2024-01-11T09:05:20;1.56;60.12
83660;SHT30;73632;50.808;3.422;2024-01-11T09:07:46;1.95;58.31
83660;SHT30;73632;50.808;3.422;2024-01-11T09:10:12;2.55;56.60
83660;SHT30;73632;50.808;3.422;2024-01-11T09:12:38;2.87;55.17
83660;SHT30;73632;50.808;3.422;2024-01-11T09:15:04;3.06;54.64
83660;SHT30;73632;50.808;3.422;2024-01-11T09:17:29;3.39;53.49
83660;SHT30;73632;50.808;3.422;2024-01-11T09:19:55;3.47;53.36
83660;SHT30;73632;50.808;3.422;2024-01-11T09:22:20;3.69;52.24
83660;SHT30;73632;50.808;3.422;2024-01-11T09:24:46;3.35;53.54
83660;SHT30;73632;50.808;3.422;2024-01-11T09:27:11;3.19;53.72
83660;SHT30;73632;50.808;3.422;2024-01-11T09:29:42;3.40;52.55
83660;SHT30;73632;50.808;3.422;2024-01-11T09:32:07;3.69;52.45
83660;SHT30;73632;50.808;3.422;2024-01-11T09:34:33;3.64;51.98
83660;SHT30;73632;50.808;3.422;2024-01-11T09:36:58;3.40;52.50
83660;SHT30;73632;50.808;3.422;2024-01-11T09:39:24;3.36;52.87
83660;SHT30;73632;50.808;3.422;2024-01-11T09:42:17;3.53;52.52
83660;SHT30;73632;50.808;3.422;2024-01-11T09:44:43;3.94;51.24
83660;SHT30;73632;50.808;3.422;2024-01-11T09:47:11;4.17;50.25
83660;SHT30;73632;50.808;3.422;2024-01-11T09:49:38;4.45;49.81
83660;SHT30;73632;50.808;3.422;2024-01-11T09:52:05;5.03;48.19
83660;SHT30;73632;50.808;3.422;2024-01-11T09:54:34;5.87;45.97
83660;SHT30;73632;50.808;3.422;2024-01-11T09:57:00;5.99;44.17
83660;SHT30;73632;50.808;3.422;2024-01-11T09:59:28;6.59;43.70
83660;SHT30;73632;50.808;3.422;2024-01-11T10:01:54;6.65;43.33
83660;SHT30;73632;50.808;3.422;2024-01-11T10:04:19;6.60;43.50
83660;SHT30;73632;50.808;3.422;2024-01-11T10:06:45;6.66;43.13
83660;SHT30;73632;50.808;3.422;2024-01-11T10:09:10;6.46;43.60
83660;SHT30;73632;50.808;3.422;2024-01-11T10:11:38;5.60;45.53
83660;SHT30;73632;50.808;3.422;2024-01-11T10:14:03;4.15;49.26
83660;SHT30;73632;50.808;3.422;2024-01-11T10:16:30;3.47;51.26
83660;SHT30;73632;50.808;3.422;2024-01-11T10:18:56;2.95;53.36
83660;SHT30;73632;50.808;3.422;2024-01-11T10:21:23;2.92;54.16
83660;SHT30;73632;50.808;3.422;2024-01-11T10:23:49;2.88;54.97
83660;SHT30;73632;50.808;3.422;2024-01-11T10:26:18;2.80;54.81
83660;SHT30;73632;50.808;3.422;2024-01-11T10:28:47;2.57;55.34
83660;SHT30;73632;50.808;3.422;2024-01-11T10:31:13;2.45;55.85
83660;SHT30;73632;50.808;3.422;2024-01-11T10:33:41;2.45;56.61
83660;SHT30;73632;50.808;3.422;2024-01-11T10:36:07;2.38;56.73
83660;SHT30;73632;50.808;3.422;2024-01-11T10:38:37;2.34;56.82
83660;SHT30;73632;50.808;3.422;2024-01-11T10:41:07;2.21;57.14
83660;SHT30;73632;50.808;3.422;2024-01-11T10:43:37;2.21;57.79
83660;SHT30;73632;50.808;3.422;2024-01-11T10:46:04;2.10;57.41
83660;SHT30;73632;50.808;3.422;2024-01-11T10:48:34;1.85;58.16
83660;SHT30;73632;50.808;3.422;2024-01-11T10:51:06;1.80;58.13
83660;SHT30;73632;50.808;3.422;2024-01-11T10:53:43;1.62;60.12
83660;SHT30;73632;50.808;3.422;2024-01-11T10:56:11;1.52;60.52
83660;SHT30;73632;50.808;3.422;2024-01-11T10:58:41;1.49;60.31
83660;SHT30;73632;50.808;3.422;2024-01-11T11:01:08;1.55;59.55
83660;SHT30;73632;50.808;3.422;2024-01-11T11:03:35;1.52;60.16
83660;SHT30;73632;50.808;3.422;2024-01-11T11:06:01;1.54;58.90
83660;SHT30;73632;50.808;3.422;2024-01-11T11:08:27;1.41;58.97
83660;SHT30;73632;50.808;3.422;2024-01-11T11:10:57;1.35;59.78
83660;SHT30;73632;50.808;3.422;2024-01-11T11:13:24;1.21;60.53
83660;SHT30;73632;50.808;3.422;2024-01-11T11:15:50;1.25;61.29
83660;SHT30;73632;50.808;3.422;2024-01-11T11:18:16;1.27;60.77
83660;SHT30;73632;50.808;3.422;2024-01-11T11:20:42;1.27;60.51
83660;SHT30;73632;50.808;3.422;2024-01-11T11:23:09;1.30;61.09
83660;SHT30;73632;50.808;3.422;2024-01-11T11:25:36;1.39;60.23
83660;SHT30;73632;50.808;3.422;2024-01-11T11:28:03;1.39;59.94
83660;SHT30;73632;50.808;3.422;2024-01-11T11:30:40;1.44;60.14
83660;SHT30;73632;50.808;3.422;2024-01-11T11:33:17;1.46;60.33
83660;SHT30;73632;50.808;3.422;2024-01-11T11:35:43;1.46;61.07
83660;SHT30;73632;50.808;3.422;2024-01-11T11:38:18;1.51;60.63
83660;SHT30;73632;50.808;3.422;2024-01-11T11:40:47;1.44;61.80
83660;SHT30;73632;50.808;3.422;2024-01-11T11:43:15;1.36;61.33
83660;SHT30;73632;50.808;3.422;2024-01-11T11:45:42;1.55;60.70
83660;SHT30;73632;50.808;3.422;2024-01-11T11:53:33;1.39;59.94
83660;SHT30;73632;50.808;3.422;2024-01-11T11:55:58;1.39;60.89
83660;SHT30;73632;50.808;3.422;2024-01-11T11:58:24;1.41;60.37
83660;SHT30;73632;50.808;3.422;2024-01-11T12:00:51;1.27;61.06
83660;SHT30;73632;50.808;3.422;2024-01-11T12:03:17;1.41;60.78
83660;SHT30;73632;50.808;3.422;2024-01-11T12:05:43;1.52;61.33
83660;SHT30;73632;50.808;3.422;2024-01-11T12:08:09;1.59;60.58
83660;SHT30;73632;50.808;3.422;2024-01-11T12:10:34;1.60;60.35
83660;SHT30;73632;50.808;3.422;2024-01-11T12:12:59;1.66;60.94
83660;SHT30;73632;50.808;3.422;2024-01-11T12:15:28;1.73;59.82
83660;SHT30;73632;50.808;3.422;2024-01-11T12:17:58;1.72;59.75
83660;SHT30;73632;50.808;3.422;2024-01-11T12:20:25;1.75;59.77
83660;SHT30;73632;50.808;3.422;2024-01-11T12:22:50;1.75;59.22
83660;SHT30;73632;50.808;3.422;2024-01-11T12:25:16;1.83;58.66
83660;SHT30;73632;50.808;3.422;2024-01-11T12:27:42;1.75;58.26
83660;SHT30;73632;50.808;3.422;2024-01-11T12:30:09;1.75;58.55
83660;SHT30;73632;50.808;3.422;2024-01-11T12:32:45;1.79;58.53
83660;SHT30;73632;50.808;3.422;2024-01-11T12:35:12;1.82;58.60
83660;SHT30;73632;50.808;3.422;2024-01-11T12:38:08;1.86;59.06
83660;SHT30;73632;50.808;3.422;2024-01-11T12:40:42;1.90;58.36
83660;SHT30;73632;50.808;3.422;2024-01-11T12:43:07;1.97;59.13
83660;SHT30;73632;50.808;3.422;2024-01-11T12:45:36;2.00;59.04
83660;SHT30;73632;50.808;3.422;2024-01-11T12:48:10;2.09;58.29
83660;SHT30;73632;50.808;3.422;2024-01-11T12:50:40;2.11;58.81
83660;SHT30;73632;50.808;3.422;2024-01-11T12:53:12;2.17;58.31
83660;SHT30;73632;50.808;3.422;2024-01-11T12:56:05;2.21;59.54
83660;SHT30;73632;50.808;3.422;2024-01-11T12:58:37;2.34;58.68
83660;SHT30;73632;50.808;3.422;2024-01-11T13:01:05;2.38;58.04
83660;SHT30;73632;50.808;3.422;2024-01-11T13:03:35;2.34;58.27
83660;SHT30;73632;50.808;3.422;2024-01-11T13:06:03;2.31;58.84
83660;SHT30;73632;50.808;3.422;2024-01-11T13:08:34;2.29;59.40
83660;SHT30;73632;50.808;3.422;2024-01-11T13:11:03;2.40;59.84
83660;SHT30;73632;50.808;3.422;2024-01-11T13:13:36;2.40;58.42
83660;SHT30;73632;50.808;3.422;2024-01-11T13:16:02;2.51;58.49
83660;SHT30;73632;50.808;3.422;2024-01-11T13:18:37;2.47;59.32
83660;SHT30;73632;50.808;3.422;2024-01-11T13:21:04;2.52;58.06
83660;SHT30;73632;50.808;3.422;2024-01-11T13:23:32;2.45;58.88
83660;SHT30;73632;50.808;3.422;2024-01-11T13:25:57;2.33;58.81
83660;SHT30;73632;50.808;3.422;2024-01-11T13:28:22;2.41;57.43
83660;SHT30;73632;50.808;3.422;2024-01-11T13:30:48;2.41;57.41
83660;SHT30;73632;50.808;3.422;2024-01-11T13:33:16;2.33;57.88
83660;SHT30;73632;50.808;3.422;2024-01-11T13:35:43;2.29;58.94
83660;SHT30;73632;50.808;3.422;2024-01-11T13:38:09;2.30;59.87
83660;SHT30;73632;50.808;3.422;2024-01-11T13:40:35;2.29;59.83
83660;SHT30;73632;50.808;3.422;2024-01-11T13:43:01;2.31;60.44
83660;SHT30;73632;50.808;3.422;2024-01-11T13:45:30;2.44;60.32
83660;SHT30;73632;50.808;3.422;2024-01-11T13:47:55;2.38;60.24
83660;SHT30;73632;50.808;3.422;2024-01-11T13:50:21;2.34;60.50
83660;SHT30;73632;50.808;3.422;2024-01-11T13:52:47;2.37;60.05
83660;SHT30;73632;50.808;3.422;2024-01-11T13:55:12;2.40;60.14
83660;SHT30;73632;50.808;3.422;2024-01-11T13:57:39;2.37;60.55
83660;SHT30;73632;50.808;3.422;2024-01-11T14:00:05;2.37;61.11
83660;SHT30;73632;50.808;3.422;2024-01-11T14:02:31;2.48;59.19
83660;SHT30;73632;50.808;3.422;2024-01-11T14:04:57;2.37;58.40
83660;SHT30;73632;50.808;3.422;2024-01-11T14:07:22;2.47;57.54
83660;SHT30;73632;50.808;3.422;2024-01-11T14:09:48;2.37;56.55
83660;SHT30;73632;50.808;3.422;2024-01-11T14:12:13;2.42;55.50
83660;SHT30;73632;50.808;3.422;2024-01-11T14:14:41;2.40;54.56
83660;SHT30;73632;50.808;3.422;2024-01-11T14:17:07;2.31;53.64
83660;SHT30;73632;50.808;3.422;2024-01-11T14:19:33;2.33;54.21
83660;SHT30;73632;50.808;3.422;2024-01-11T14:21:58;2.30;53.25
83660;SHT30;73632;50.808;3.422;2024-01-11T14:24:24;2.33;54.54
83660;SHT30;73632;50.808;3.422;2024-01-11T14:26:50;2.26;55.84
83660;SHT30;73632;50.808;3.422;2024-01-11T14:29:16;2.29;56.24
83660;SHT30;73632;50.808;3.422;2024-01-11T14:31:41;2.23;56.24
83660;SHT30;73632;50.808;3.422;2024-01-11T14:34:07;2.14;55.07
83660;SHT30;73632;50.808;3.422;2024-01-11T14:36:32;2.05;54.82
83660;SHT30;73632;50.808;3.422;2024-01-11T14:38:58;2.11;53.91
83660;SHT30;73632;50.808;3.422;2024-01-11T14:41:23;2.09;53.25
83660;SHT30;73632;50.808;3.422;2024-01-11T14:43:48;2.05;53.57
83660;SHT30;73632;50.808;3.422;2024-01-11T14:46:14;2.03;54.14
83660;SHT30;73632;50.808;3.422;2024-01-11T14:48:39;1.99;55.39
83660;SHT30;73632;50.808;3.422;2024-01-11T14:51:06;1.90;56.17
83660;SHT30;73632;50.808;3.422;2024-01-11T14:53:33;1.96;56.28
83660;SHT30;73632;50.808;3.422;2024-01-11T14:55:58;1.87;57.86
83660;SHT30;73632;50.808;3.422;2024-01-11T14:58:24;1.87;60.12
83660;SHT30;73632;50.808;3.422;2024-01-11T15:00:49;1.89;61.60
83660;SHT30;73632;50.808;3.422;2024-01-11T15:03:15;1.82;65.68
83660;SHT30;73632;50.808;3.422;2024-01-11T15:05:41;1.72;68.29
83660;SHT30;73632;50.808;3.422;2024-01-11T15:08:07;1.65;69.55
83660;SHT30;73632;50.808;3.422;2024-01-11T15:10:32;1.60;71.32
83660;SHT30;73632;50.808;3.422;2024-01-11T15:12:58;1.55;72.87
83660;SHT30;73632;50.808;3.422;2024-01-11T15:15:23;1.52;74.55
83660;SHT30;73632;50.808;3.422;2024-01-11T15:17:49;1.55;74.85
83660;SHT30;73632;50.808;3.422;2024-01-11T15:20:14;1.48;75.55
83660;SHT30;73632;50.808;3.422;2024-01-11T15:22:40;1.42;76.49
83660;SHT30;73632;50.808;3.422;2024-01-11T15:25:06;1.38;76.95
83660;SHT30;73632;50.808;3.422;2024-01-11T15:27:32;1.34;77.33
83660;SHT30;73632;50.808;3.422;2024-01-11T15:29:57;1.44;77.65
83660;SHT30;73632;50.808;3.422;2024-01-11T15:32:22;1.44;77.89
83660;SHT30;73632;50.808;3.422;2024-01-11T15:34:48;1.39;78.24
83660;SHT30;73632;50.808;3.422;2024-01-11T15:37:13;1.44;78.17